sensor_id;sensor_type;location;lat;lon;timestamp;temperature;humidity
43673;DHT22;41723;49.326;8.430;2023-11-19T00:00:27;9.10;99.90
43673;DHT22;41723;49.326;8.430;2023-11-19T00:02:52;9.10;99.90
43673;DHT22;41723;49.326;8.430;2023-11-19T00:05:18;9.10;99.90
43673;DHT22;41723;49.326;8.430;2023-11-19T00:07:44;9.10;99.90
43673;DHT22;41723;49.326;8.430;2023-11-19T00:10:10;9.10;99.90
43673;DHT22;41723;49.326;8.430;2023-11-19T00:12:39;9.10;99.90
43673;DHT22;41723;49.326;8.430;2023-11-19T00:15:05;9.10;99.90
43673;DHT22;41723;49.326;8.430;2023-11-19T00:17:33;9.10;99.90
43673;DHT22;41723;49.326;8.430;2023-11-19T00:19:59;9.10;99.90
43673;DHT22;41723;49.326;8.430;2023-11-19T00:22:24;9.00;99.90
43673;DHT22;41723;49.326;8.430;2023-11-19T00:24:51;9.00;99.90
43673;DHT22;41723;49.326;8.430;2023-11-19T00:27:18;9.00;99.90
43673;DHT22;41723;49.326;8.430;2023-11-19T00:29:43;9.00;99.90
43673;DHT22;41723;49.326;8.430;2023-11-19T00:32:11;9.00;99.90
43673;DHT22;41723;49.326;8.430;2023-11-19T00:34:37;9.10;99.90
43673;DHT22;41723;49.326;8.430;2023-11-19T00:37:02;9.10;99.90
43673;DHT22;41723;49.326;8.430;2023-11-19T00:39:29;9.10;99.90
43673;DHT22;41723;49.326;8.430;2023-11-19T00:41:54;9.10;99.90
43673;DHT22;41723;49.326;8.430;2023-11-19T00:44:20;9.20;99.90
43673;DHT22;41723;49.326;8.430;2023-11-19T00:46:47;9.10;99.90
43673;DHT22;41723;49.326;8.430;2023-11-19T00:49:12;9.10;99.90
43673;DHT22;41723;49.326;8.430;2023-11-19T00:51:38;9.20;99.90
43673;DHT22;41723;49.326;8.430;2023-11-19T00:54:04;9.10;99.90
43673;DHT22;41723;49.326;8.430;2023-11-19T00:56:29;9.20;99.90
43673;DHT22;41723;49.326;8.430;2023-11-19T00:58:55;9.20;99.90
43673;DHT22;41723;49.326;8.430;2023-11-19T01:01:21;9.20;99.90
43673;DHT22;41723;49.326;8.430;2023-11-19T01:03:47;9.20;99.90
43673;DHT22;41723;49.326;8.430;2023-11-19T01:06:12;9.20;99.90
43673;DHT22;41723;49.326;8.430;2023-11-19T01:08:39;9.20;99.90
43673;DHT22;41723;49.326;8.430;2023-11-19T01:11:05;9.30;99.90
43673;DHT22;41723;49.326;8.430;2023-11-19T01:13:30;9.20;99.90
43673;DHT22;41723;49.326;8.430;2023-11-19T01:15:56;9.20;99.90
43673;DHT22;41723;49.326;8.430;2023-11-19T01:18:23;9.30;99.90
43673;DHT22;41723;49.326;8.430;2023-11-19T01:20:49;9.30;99.90
43673;DHT22;41723;49.326;8.430;2023-11-19T01:23:15;9.30;99.90
43673;DHT22;41723;49.326;8.430;2023-11-19T01:25:40;9.30;99.90
43673;DHT22;41723;49.326;8.430;2023-11-19T01:28:06;9.30;99.90
43673;DHT22;41723;49.326;8.430;2023-11-19T01:33:25;9.30;99.90
43673;DHT22;41723;49.326;8.430;2023-11-19T01:35:51;9.30;99.90
43673;DHT22;41723;49.326;8.430;2023-11-19T01:38:17;9.30;99.90
43673;DHT22;41723;49.326;8.430;2023-11-19T01:40:42;9.30;99.90
43673;DHT22;41723;49.326;8.430;2023-11-19T01:43:08;9.30;99.90
43673;DHT22;41723;49.326;8.430;2023-11-19T01:45:36;9.40;99.90
43673;DHT22;41723;49.326;8.430;2023-11-19T01:48:02;9.40;99.90
43673;DHT22;41723;49.326;8.430;2023-11-19T01:50:31;9.40;99.90
43673;DHT22;41723;49.326;8.430;2023-11-19T01:52:57;9.40;99.90
43673;DHT22;41723;49.326;8.430;2023-11-19T01:55:23;9.50;99.90
43673;DHT22;41723;49.326;8.430;2023-11-19T01:57:49;9.50;99.90
43673;DHT22;41723;49.326;8.430;2023-11-19T02:00:15;9.50;99.90
43673;DHT22;41723;49.326;8.430;2023-11-19T02:02:43;9.50;99.90
43673;DHT22;41723;49.326;8.430;2023-11-19T02:05:10;9.50;99.90
43673;DHT22;41723;49.326;8.430;2023-11-19T02:07:36;9.60;99.90
43673;DHT22;41723;49.326;8.430;2023-11-19T02:10:02;9.60;99.90
43673;DHT22;41723;49.326;8.430;2023-11-19T02:12:28;9.50;99.90
43673;DHT22;41723;49.326;8.430;2023-11-19T02:14:54;9.60;99.90
43673;DHT22;41723;49.326;8.430;2023-11-19T02:17:29;9.60;99.90
43673;DHT22;41723;49.326;8.430;2023-11-19T02:19:57;9.60;99.90
43673;DHT22;41723;49.326;8.430;2023-11-19T02:22:22;9.60;99.90
43673;DHT22;41723;49.326;8.430;2023-11-19T02:24:49;9.60;99.90
43673;DHT22;41723;49.326;8.430;2023-11-19T02:27:22;9.70;99.90
43673;DHT22;41723;49.326;8.430;2023-11-19T02:29:49;9.70;99.90
43673;DHT22;41723;49.326;8.430;2023-11-19T02:32:15;9.70;99.90
43673;DHT22;41723;49.326;8.430;2023-11-19T02:34:41;9.70;99.90
43673;DHT22;41723;49.326;8.430;2023-11-19T02:37:06;9.70;99.90
43673;DHT22;41723;49.326;8.430;2023-11-19T02:39:33;9.70;99.90
43673;DHT22;41723;49.326;8.430;2023-11-19T02:41:59;9.70;99.90
43673;DHT22;41723;49.326;8.430;2023-11-19T02:44:25;9.80;99.90
43673;DHT22;41723;49.326;8.430;2023-11-19T02:46:53;9.80;99.90
43673;DHT22;41723;49.326;8.430;2023-11-19T02:49:19;9.80;99.90
43673;DHT22;41723;49.326;8.430;2023-11-19T02:51:44;9.80;99.90
43673;DHT22;41723;49.326;8.430;2023-11-19T02:54:10;9.90;99.90
43673;DHT22;41723;49.326;8.430;2023-11-19T02:56:36;9.90;99.90
43673;DHT22;41723;49.326;8.430;2023-11-19T02:59:02;9.90;99.90
43673;DHT22;41723;49.326;8.430;2023-11-19T03:01:40;9.90;99.90
43673;DHT22;41723;49.326;8.430;2023-11-19T03:04:09;9.90;99.90
43673;DHT22;41723;49.326;8.430;2023-11-19T03:06:37;10.00;99.90
43673;DHT22;41723;49.326;8.430;2023-11-19T03:09:03;9.90;99.90
43673;DHT22;41723;49.326;8.430;2023-11-19T03:11:36;9.90;99.90
43673;DHT22;41723;49.326;8.430;2023-11-19T03:14:02;10.00;99.90
43673;DHT22;41723;49.326;8.430;2023-11-19T03:16:28;10.00;99.90
43673;DHT22;41723;49.326;8.430;2023-11-19T03:18:54;10.00;99.90
43673;DHT22;41723;49.326;8.430;2023-11-19T03:21:27;10.00;99.90
43673;DHT22;41723;49.326;8.430;2023-11-19T03:23:52;10.00;99.90
43673;DHT22;41723;49.326;8.430;2023-11-19T03:26:18;10.00;99.90
43673;DHT22;41723;49.326;8.430;2023-11-19T03:28:44;10.00;99.90
43673;DHT22;41723;49.326;8.430;2023-11-19T03:31:10;10.00;99.90
43673;DHT22;41723;49.326;8.430;2023-11-19T03:33:35;10.00;99.90
43673;DHT22;41723;49.326;8.430;2023-11-19T03:36:01;10.00;99.90
43673;DHT22;41723;49.326;8.430;2023-11-19T03:38:28;10.00;99.90
43673;DHT22;41723;49.326;8.430;2023-11-19T03:40:53;10.00;99.90
43673;DHT22;41723;49.326;8.430;2023-11-19T03:43:19;10.10;99.90
43673;DHT22;41723;49.326;8.430;2023-11-19T03:45:44;10.10;99.90
43673;DHT22;41723;49.326;8.430;2023-11-19T03:48:10;10.10;99.90
43673;DHT22;41723;49.326;8.430;2023-11-19T03:50:36;10.10;99.90
43673;DHT22;41723;49.326;8.430;2023-11-19T03:53:01;10.20;99.90
43673;DHT22;41723;49.326;8.430;2023-11-19T03:55:28;10.20;99.90
43673;DHT22;41723;49.326;8.430;2023-11-19T03:57:54;10.20;99.90
43673;DHT22;41723;49.326;8.430;2023-11-19T04:00:20;10.20;99.90
43673;DHT22;41723;49.326;8.430;2023-11-19T04:02:46;10.20;99.90
43673;DHT22;41723;49.326;8.430;2023-11-19T04:05:12;10.30;99.90
43673;DHT22;41723;49.326;8.430;2023-11-19T04:07:38;10.30;99.90
43673;DHT22;41723;49.326;8.430;2023-11-19T04:10:04;10.30;99.90
43673;DHT22;41723;49.326;8.430;2023-11-19T04:12:29;10.30;99.90
43673;DHT22;41723;49.326;8.430;2023-11-19T04:14:55;10.40;99.90
43673;DHT22;41723;49.326;8.430;2023-11-19T04:17:21;10.40;99.90
43673;DHT22;41723;49.326;8.430;2023-11-19T04:19:48;10.40;99.90
43673;DHT22;41723;49.326;8.430;2023-11-19T04:22:14;10.40;99.90
43673;DHT22;41723;49.326;8.430;2023-11-19T04:24:39;10.40;99.90
43673;DHT22;41723;49.326;8.430;2023-11-19T04:27:06;10.40;99.90
43673;DHT22;41723;49.326;8.430;2023-11-19T04:29:31;10.50;99.90
43673;DHT22;41723;49.326;8.430;2023-11-19T04:31:57;10.60;99.90
43673;DHT22;41723;49.326;8.430;2023-11-19T04:34:23;10.50;99.90
43673;DHT22;41723;49.326;8.430;2023-11-19T04:36:49;10.50;99.90
43673;DHT22;41723;49.326;8.430;2023-11-19T04:39:15;10.60;99.90
43673;DHT22;41723;49.326;8.430;2023-11-19T04:41:47;10.60;99.90
43673;DHT22;41723;49.326;8.430;2023-11-19T04:44:14;10.60;99.90
43673;DHT22;41723;49.326;8.430;2023-11-19T04:46:41;10.70;99.90
43673;DHT22;41723;49.326;8.430;2023-11-19T04:49:08;10.60;99.90
43673;DHT22;41723;49.326;8.430;2023-11-19T04:51:43;10.70;99.90
43673;DHT22;41723;49.326;8.430;2023-11-19T04:54:09;10.60;99.90
43673;DHT22;41723;49.326;8.430;2023-11-19T04:56:35;10.70;99.90
43673;DHT22;41723;49.326;8.430;2023-11-19T04:59:03;10.70;99.90
43673;DHT22;41723;49.326;8.430;2023-11-19T05:01:28;10.70;99.90
43673;DHT22;41723;49.326;8.430;2023-11-19T05:03:55;10.80;99.90
43673;DHT22;41723;49.326;8.430;2023-11-19T05:06:22;10.80;99.90
43673;DHT22;41723;49.326;8.430;2023-11-19T05:08:48;10.80;99.90
43673;DHT22;41723;49.326;8.430;2023-11-19T05:11:13;10.80;99.90
43673;DHT22;41723;49.326;8.430;2023-11-19T05:13:43;10.90;99.90
43673;DHT22;41723;49.326;8.430;2023-11-19T05:16:11;10.90;99.90
43673;DHT22;41723;49.326;8.430;2023-11-19T05:18:39;10.90;99.90
43673;DHT22;41723;49.326;8.430;2023-11-19T05:21:05;10.90;99.90
43673;DHT22;41723;49.326;8.430;2023-11-19T05:23:31;10.90;99.90
43673;DHT22;41723;49.326;8.430;2023-11-19T05:25:56;11.00;99.90
43673;DHT22;41723;49.326;8.430;2023-11-19T05:28:23;11.00;99.90
43673;DHT22;41723;49.326;8.430;2023-11-19T05:30:51;11.10;99.90
43673;DHT22;41723;49.326;8.430;2023-11-19T05:33:17;11.10;99.90
43673;DHT22;41723;49.326;8.430;2023-11-19T05:35:43;11.10;99.90
43673;DHT22;41723;49.326;8.430;2023-11-19T05:38:08;11.10;99.90
43673;DHT22;41723;49.326;8.430;2023-11-19T05:40:35;11.10;99.90
43673;DHT22;41723;49.326;8.430;2023-11-19T05:43:01;11.20;99.90
43673;DHT22;41723;49.326;8.430;2023-11-19T05:45:26;11.20;99.90
43673;DHT22;41723;49.326;8.430;2023-11-19T05:47:52;11.20;99.90
43673;DHT22;41723;49.326;8.430;2023-11-19T05:50:18;11.20;99.90
43673;DHT22;41723;49.326;8.430;2023-11-19T05:52:44;11.20;99.90
43673;DHT22;41723;49.326;8.430;2023-11-19T05:55:09;11.20;99.90
43673;DHT22;41723;49.326;8.430;2023-11-19T05:57:38;11.20;99.90
43673;DHT22;41723;49.326;8.430;2023-11-19T06:00:05;11.30;99.90
43673;DHT22;41723;49.326;8.430;2023-11-19T06:02:37;11.20;99.90
43673;DHT22;41723;49.326;8.430;2023-11-19T06:05:04;11.20;99.90
43673;DHT22;41723;49.326;8.430;2023-11-19T06:07:31;11.20;99.90
43673;DHT22;41723;49.326;8.430;2023-11-19T06:09:56;11.30;99.90
43673;DHT22;41723;49.326;8.430;2023-11-19T06:12:22;11.30;99.90
43673;DHT22;41723;49.326;8.430;2023-11-19T06:14:48;11.30;99.90
43673;DHT22;41723;49.326;8.430;2023-11-19T06:17:13;11.30;99.90
43673;DHT22;41723;49.326;8.430;2023-11-19T06:19:39;11.30;99.90
43673;DHT22;41723;49.326;8.430;2023-11-19T06:22:04;11.40;99.90
43673;DHT22;41723;49.326;8.430;2023-11-19T06:24:30;11.40;99.90
43673;DHT22;41723;49.326;8.430;2023-11-19T06:26:55;11.40;99.90
43673;DHT22;41723;49.326;8.430;2023-11-19T06:29:21;11.40;99.90
43673;DHT22;41723;49.326;8.430;2023-11-19T06:31:47;11.50;99.90
43673;DHT22;41723;49.326;8.430;2023-11-19T06:34:15;11.50;99.90
43673;DHT22;41723;49.326;8.430;2023-11-19T06:36:41;11.50;99.90
43673;DHT22;41723;49.326;8.430;2023-11-19T06:39:09;11.50;99.90
43673;DHT22;41723;49.326;8.430;2023-11-19T06:41:34;11.50;99.90
43673;DHT22;41723;49.326;8.430;2023-11-19T06:44:00;11.50;99.90
43673;DHT22;41723;49.326;8.430;2023-11-19T06:46:25;11.50;99.90
43673;DHT22;41723;49.326;8.430;2023-11-19T06:48:51;11.60;99.90
43673;DHT22;41723;49.326;8.430;2023-11-19T06:51:16;11.60;99.90
43673;DHT22;41723;49.326;8.430;2023-11-19T06:53:42;11.60;99.90
43673;DHT22;41723;49.326;8.430;2023-11-19T06:58:44;11.60;99.90
43673;DHT22;41723;49.326;8.430;2023-11-19T07:01:10;11.70;99.90
43673;DHT22;41723;49.326;8.430;2023-11-19T07:03:36;11.70;99.90
43673;DHT22;41723;49.326;8.430;2023-11-19T07:06:01;11.70;99.90
43673;DHT22;41723;49.326;8.430;2023-11-19T07:08:30;11.70;99.90
43673;DHT22;41723;49.326;8.430;2023-11-19T07:10:56;11.70;99.90
43673;DHT22;41723;49.326;8.430;2023-11-19T07:13:21;11.70;99.90
43673;DHT22;41723;49.326;8.430;2023-11-19T07:15:47;11.80;99.90
43673;DHT22;41723;49.326;8.430;2023-11-19T07:18:13;11.80;99.90
43673;DHT22;41723;49.326;8.430;2023-11-19T07:20:39;11.80;99.90
43673;DHT22;41723;49.326;8.430;2023-11-19T07:23:05;11.80;99.90
43673;DHT22;41723;49.326;8.430;2023-11-19T07:25:31;11.80;99.90
43673;DHT22;41723;49.326;8.430;2023-11-19T07:27:57;11.80;99.90
43673;DHT22;41723;49.326;8.430;2023-11-19T07:30:22;11.80;99.90
43673;DHT22;41723;49.326;8.430;2023-11-19T07:32:48;11.80;99.90
43673;DHT22;41723;49.326;8.430;2023-11-19T07:35:14;11.80;99.90
43673;DHT22;41723;49.326;8.430;2023-11-19T07:37:41;11.80;99.90
43673;DHT22;41723;49.326;8.430;2023-11-19T07:40:07;11.80;99.90
43673;DHT22;41723;49.326;8.430;2023-11-19T07:42:33;11.80;99.90
43673;DHT22;41723;49.326;8.430;2023-11-19T07:44:59;11.80;99.90
43673;DHT22;41723;49.326;8.430;2023-11-19T07:47:24;11.80;99.90
43673;DHT22;41723;49.326;8.430;2023-11-19T07:49:50;11.80;99.90
43673;DHT22;41723;49.326;8.430;2023-11-19T07:52:16;11.80;99.90
43673;DHT22;41723;49.326;8.430;2023-11-19T07:54:42;11.80;99.90
43673;DHT22;41723;49.326;8.430;2023-11-19T07:57:07;11.80;99.90
43673;DHT22;41723;49.326;8.430;2023-11-19T07:59:33;11.80;99.90
43673;DHT22;41723;49.326;8.430;2023-11-19T08:01:59;11.80;99.90
43673;DHT22;41723;49.326;8.430;2023-11-19T08:04:24;11.80;99.90
43673;DHT22;41723;49.326;8.430;2023-11-19T08:06:50;11.90;99.90
43673;DHT22;41723;49.326;8.430;2023-11-19T08:09:16;11.80;99.90
43673;DHT22;41723;49.326;8.430;2023-11-19T08:11:43;11.80;99.90
43673;DHT22;41723;49.326;8.430;2023-11-19T08:14:08;11.80;99.90
43673;DHT22;41723;49.326;8.430;2023-11-19T08:16:34;11.90;99.90
43673;DHT22;41723;49.326;8.430;2023-11-19T08:19:00;11.90;99.90
43673;DHT22;41723;49.326;8.430;2023-11-19T08:21:25;11.90;99.90
43673;DHT22;41723;49.326;8.430;2023-11-19T08:23:52;12.00;99.90
43673;DHT22;41723;49.326;8.430;2023-11-19T08:26:18;12.00;99.90
43673;DHT22;41723;49.326;8.430;2023-11-19T08:28:43;12.00;99.90
43673;DHT22;41723;49.326;8.430;2023-11-19T08:31:15;12.00;99.90
43673;DHT22;41723;49.326;8.430;2023-11-19T08:33:41;12.10;99.90
43673;DHT22;41723;49.326;8.430;2023-11-19T08:36:06;12.10;99.90
43673;DHT22;41723;49.326;8.430;2023-11-19T08:38:32;12.20;99.90
43673;DHT22;41723;49.326;8.430;2023-11-19T08:40:58;12.30;99.90
43673;DHT22;41723;49.326;8.430;2023-11-19T08:43:25;12.40;99.90
43673;DHT22;41723;49.326;8.430;2023-11-19T08:45:51;12.40;99.90
43673;DHT22;41723;49.326;8.430;2023-11-19T08:48:17;12.40;99.90
43673;DHT22;41723;49.326;8.430;2023-11-19T08:50:42;12.40;99.90
43673;DHT22;41723;49.326;8.430;2023-11-19T08:53:08;12.40;99.90
43673;DHT22;41723;49.326;8.430;2023-11-19T08:55:33;12.40;99.90
43673;DHT22;41723;49.326;8.430;2023-11-19T08:57:59;12.50;99.90
43673;DHT22;41723;49.326;8.430;2023-11-19T09:00:24;12.50;99.90
43673;DHT22;41723;49.326;8.430;2023-11-19T09:02:50;12.50;99.90
43673;DHT22;41723;49.326;8.430;2023-11-19T09:05:16;12.60;99.90
43673;DHT22;41723;49.326;8.430;2023-11-19T09:07:41;12.70;99.90
43673;DHT22;41723;49.326;8.430;2023-11-19T09:10:07;12.70;99.90
43673;DHT22;41723;49.326;8.430;2023-11-19T09:12:34;12.80;99.90
43673;DHT22;41723;49.326;8.430;2023-11-19T09:15:00;12.90;99.90
43673;DHT22;41723;49.326;8.430;2023-11-19T09:17:26;13.00;99.90
43673;DHT22;41723;49.326;8.430;2023-11-19T09:19:51;13.00;99.90
43673;DHT22;41723;49.326;8.430;2023-11-19T09:22:17;13.10;99.90
43673;DHT22;41723;49.326;8.430;2023-11-19T09:24:42;13.20;99.90
43673;DHT22;41723;49.326;8.430;2023-11-19T09:27:10;13.20;99.90
43673;DHT22;41723;49.326;8.430;2023-11-19T09:29:36;13.30;99.90
43673;DHT22;41723;49.326;8.430;2023-11-19T09:32:01;13.30;99.90
43673;DHT22;41723;49.326;8.430;2023-11-19T09:34:27;13.40;99.90
43673;DHT22;41723;49.326;8.430;2023-11-19T09:36:53;13.40;99.90
43673;DHT22;41723;49.326;8.430;2023-11-19T09:39:19;13.40;99.90
43673;DHT22;41723;49.326;8.430;2023-11-19T09:41:46;13.40;99.90
43673;DHT22;41723;49.326;8.430;2023-11-19T09:44:12;13.50;99.90
43673;DHT22;41723;49.326;8.430;2023-11-19T09:46:41;13.50;99.90
43673;DHT22;41723;49.326;8.430;2023-11-19T09:49:07;13.50;99.90
43673;DHT22;41723;49.326;8.430;2023-11-19T09:51:35;13.50;99.90
43673;DHT22;41723;49.326;8.430;2023-11-19T09:54:00;13.50;99.90
43673;DHT22;41723;49.326;8.430;2023-11-19T09:56:26;13.50;99.90
43673;DHT22;41723;49.326;8.430;2023-11-19T09:58:53;13.40;99.90
43673;DHT22;41723;49.326;8.430;2023-11-19T10:01:18;13.50;99.90
43673;DHT22;41723;49.326;8.430;2023-11-19T10:03:44;13.60;99.90
43673;DHT22;41723;49.326;8.430;2023-11-19T10:06:11;13.60;99.90
43673;DHT22;41723;49.326;8.430;2023-11-19T10:08:37;13.60;99.90
43673;DHT22;41723;49.326;8.430;2023-11-19T10:11:05;13.60;99.90
43673;DHT22;41723;49.326;8.430;2023-11-19T10:13:31;13.60;99.90
43673;DHT22;41723;49.326;8.430;2023-11-19T10:15:59;13.80;99.90
43673;DHT22;41723;49.326;8.430;2023-11-19T10:18:29;13.90;99.90
43673;DHT22;41723;49.326;8.430;2023-11-19T10:20:55;14.00;99.90
43673;DHT22;41723;49.326;8.430;2023-11-19T10:23:21;14.00;99.90
43673;DHT22;41723;49.326;8.430;2023-11-19T10:25:47;14.10;99.90
43673;DHT22;41723;49.326;8.430;2023-11-19T10:28:14;14.10;99.90
43673;DHT22;41723;49.326;8.430;2023-11-19T10:30:42;14.10;99.90
43673;DHT22;41723;49.326;8.430;2023-11-19T10:33:09;14.10;99.90
43673;DHT22;41723;49.326;8.430;2023-11-19T10:35:35;14.20;99.90
43673;DHT22;41723;49.326;8.430;2023-11-19T10:38:03;14.40;99.90
43673;DHT22;41723;49.326;8.430;2023-11-19T10:40:38;14.50;99.90
43673;DHT22;41723;49.326;8.430;2023-11-19T10:43:07;14.50;99.90
43673;DHT22;41723;49.326;8.430;2023-11-19T10:45:33;14.60;99.90
43673;DHT22;41723;49.326;8.430;2023-11-19T10:47:59;14.70;99.90
43673;DHT22;41723;49.326;8.430;2023-11-19T10:50:27;14.70;99.90
43673;DHT22;41723;49.326;8.430;2023-11-19T10:52:57;14.60;99.90
43673;DHT22;41723;49.326;8.430;2023-11-19T10:55:33;14.60;99.90
43673;DHT22;41723;49.326;8.430;2023-11-19T10:58:01;14.50;99.90
43673;DHT22;41723;49.326;8.430;2023-11-19T11:00:28;14.40;99.90
43673;DHT22;41723;49.326;8.430;2023-11-19T11:02:56;14.40;99.90
43673;DHT22;41723;49.326;8.430;2023-11-19T11:05:25;14.40;99.90
43673;DHT22;41723;49.326;8.430;2023-11-19T11:07:51;14.40;99.90
43673;DHT22;41723;49.326;8.430;2023-11-19T11:10:17;14.40;99.90
43673;DHT22;41723;49.326;8.430;2023-11-19T11:12:43;14.40;99.90
43673;DHT22;41723;49.326;8.430;2023-11-19T11:15:10;14.40;99.90
43673;DHT22;41723;49.326;8.430;2023-11-19T11:17:38;14.40;99.90
43673;DHT22;41723;49.326;8.430;2023-11-19T11:20:04;14.50;99.90
43673;DHT22;41723;49.326;8.430;2023-11-19T11:22:33;14.60;99.90
43673;DHT22;41723;49.326;8.430;2023-11-19T11:25:09;14.60;99.90
43673;DHT22;41723;49.326;8.430;2023-11-19T11:27:43;14.70;99.90
43673;DHT22;41723;49.326;8.430;2023-11-19T11:31:02;14.90;99.90
43673;DHT22;41723;49.326;8.430;2023-11-19T11:38:08;15.30;99.90
43673;DHT22;41723;49.326;8.430;2023-11-19T11:40:34;15.40;99.90
43673;DHT22;41723;49.326;8.430;2023-11-19T11:43:00;15.50;99.90
43673;DHT22;41723;49.326;8.430;2023-11-19T11:45:35;15.50;99.90
43673;DHT22;41723;49.326;8.430;2023-11-19T11:48:09;15.50;99.90
43673;DHT22;41723;49.326;8.430;2023-11-19T11:50:36;15.60;99.90
43673;DHT22;41723;49.326;8.430;2023-11-19T11:53:16;15.60;99.90
43673;DHT22;41723;49.326;8.430;2023-11-19T11:58:17;15.70;99.90
43673;DHT22;41723;49.326;8.430;2023-11-19T12:00:43;15.70;99.90
43673;DHT22;41723;49.326;8.430;2023-11-19T12:03:09;15.60;99.90
43673;DHT22;41723;49.326;8.430;2023-11-19T12:05:41;15.60;99.90
43673;DHT22;41723;49.326;8.430;2023-11-19T12:08:07;15.70;99.90
43673;DHT22;41723;49.326;8.430;2023-11-19T12:10:37;15.60;99.90
43673;DHT22;41723;49.326;8.430;2023-11-19T12:13:04;15.60;99.90
43673;DHT22;41723;49.326;8.430;2023-11-19T12:15:32;15.50;99.90
43673;DHT22;41723;49.326;8.430;2023-11-19T12:17:58;15.50;99.90
43673;DHT22;41723;49.326;8.430;2023-11-19T12:20:24;15.50;99.90
43673;DHT22;41723;49.326;8.430;2023-11-19T12:22:50;15.60;99.90
43673;DHT22;41723;49.326;8.430;2023-11-19T12:25:16;15.70;99.90
43673;DHT22;41723;49.326;8.430;2023-11-19T12:27:49;15.80;99.90
43673;DHT22;41723;49.326;8.430;2023-11-19T12:30:25;15.60;99.90
43673;DHT22;41723;49.326;8.430;2023-11-19T12:32:51;15.60;99.90
43673;DHT22;41723;49.326;8.430;2023-11-19T12:35:19;15.60;99.90
43673;DHT22;41723;49.326;8.430;2023-11-19T12:37:49;15.40;99.90
43673;DHT22;41723;49.326;8.430;2023-11-19T12:40:16;15.30;99.90
43673;DHT22;41723;49.326;8.430;2023-11-19T12:42:48;15.20;99.90
43673;DHT22;41723;49.326;8.430;2023-11-19T12:45:14;15.10;99.90
43673;DHT22;41723;49.326;8.430;2023-11-19T12:47:41;15.00;99.90
43673;DHT22;41723;49.326;8.430;2023-11-19T12:50:07;15.00;99.90
43673;DHT22;41723;49.326;8.430;2023-11-19T12:52:37;15.00;99.90
43673;DHT22;41723;49.326;8.430;2023-11-19T12:55:04;15.00;99.90
43673;DHT22;41723;49.326;8.430;2023-11-19T13:00:03;14.90;99.90
43673;DHT22;41723;49.326;8.430;2023-11-19T13:03:03;14.90;99.90
43673;DHT22;41723;49.326;8.430;2023-11-19T13:05:25;15.00;99.90
43673;DHT22;41723;49.326;8.430;2023-11-19T13:08:01;15.00;99.90
43673;DHT22;41723;49.326;8.430;2023-11-19T13:10:28;14.90;99.90
43673;DHT22;41723;49.326;8.430;2023-11-19T13:13:27;14.90;99.90
43673;DHT22;41723;49.326;8.430;2023-11-19T13:15:46;14.80;99.90
43673;DHT22;41723;49.326;8.430;2023-11-19T13:18:12;14.80;99.90
43673;DHT22;41723;49.326;8.430;2023-11-19T13:20:37;14.80;99.90
43673;DHT22;41723;49.326;8.430;2023-11-19T13:23:04;14.80;99.90
43673;DHT22;41723;49.326;8.430;2023-11-19T13:25:30;14.80;99.90
43673;DHT22;41723;49.326;8.430;2023-11-19T13:27:56;14.80;99.90
43673;DHT22;41723;49.326;8.430;2023-11-19T13:30:24;14.80;99.90
43673;DHT22;41723;49.326;8.430;2023-11-19T13:32:51;14.80;99.90
43673;DHT22;41723;49.326;8.430;2023-11-19T13:35:17;14.80;99.90
43673;DHT22;41723;49.326;8.430;2023-11-19T13:37:43;14.80;99.90
43673;DHT22;41723;49.326;8.430;2023-11-19T13:40:09;14.90;99.90
43673;DHT22;41723;49.326;8.430;2023-11-19T13:42:38;15.00;99.90
43673;DHT22;41723;49.326;8.430;2023-11-19T13:45:09;15.00;99.90
43673;DHT22;41723;49.326;8.430;2023-11-19T13:47:39;15.10;99.90
43673;DHT22;41723;49.326;8.430;2023-11-19T13:50:10;15.00;99.90
43673;DHT22;41723;49.326;8.430;2023-11-19T13:52:36;15.00;99.90
43673;DHT22;41723;49.326;8.430;2023-11-19T13:55:04;15.00;99.90
43673;DHT22;41723;49.326;8.430;2023-11-19T13:57:30;15.00;99.90
43673;DHT22;41723;49.326;8.430;2023-11-19T13:59:56;15.00;99.90
43673;DHT22;41723;49.326;8.430;2023-11-19T14:02:22;14.90;99.90
43673;DHT22;41723;49.326;8.430;2023-11-19T14:04:48;15.20;99.90
43673;DHT22;41723;49.326;8.430;2023-11-19T14:07:13;15.30;99.90
43673;DHT22;41723;49.326;8.430;2023-11-19T14:09:41;15.40;99.90
43673;DHT22;41723;49.326;8.430;2023-11-19T14:12:07;15.40;99.90
43673;DHT22;41723;49.326;8.430;2023-11-19T14:14:34;15.30;99.90
43673;DHT22;41723;49.326;8.430;2023-11-19T14:16:59;15.40;99.90
43673;DHT22;41723;49.326;8.430;2023-11-19T14:19:25;15.40;99.90
43673;DHT22;41723;49.326;8.430;2023-11-19T14:21:50;15.40;99.90
43673;DHT22;41723;49.326;8.430;2023-11-19T14:24:16;15.40;99.90
43673;DHT22;41723;49.326;8.430;2023-11-19T14:26:42;15.30;99.90
43673;DHT22;41723;49.326;8.430;2023-11-19T14:29:07;15.30;99.90
43673;DHT22;41723;49.326;8.430;2023-11-19T14:31:33;15.30;99.90
43673;DHT22;41723;49.326;8.430;2023-11-19T14:33:59;15.30;99.90
43673;DHT22;41723;49.326;8.430;2023-11-19T14:36:24;15.30;99.90
43673;DHT22;41723;49.326;8.430;2023-11-19T14:38:51;15.30;99.90
43673;DHT22;41723;49.326;8.430;2023-11-19T14:41:17;15.30;99.90
43673;DHT22;41723;49.326;8.430;2023-11-19T14:43:42;15.20;99.90
43673;DHT22;41723;49.326;8.430;2023-11-19T14:46:08;15.20;99.90
43673;DHT22;41723;49.326;8.430;2023-11-19T14:48:35;15.30;99.90
43673;DHT22;41723;49.326;8.430;2023-11-19T14:51:01;15.30;99.90
43673;DHT22;41723;49.326;8.430;2023-11-19T14:53:28;15.30;99.90
43673;DHT22;41723;49.326;8.430;2023-11-19T14:55:54;15.20;99.90
43673;DHT22;41723;49.326;8.430;2023-11-19T14:58:20;15.20;99.90
43673;DHT22;41723;49.326;8.430;2023-11-19T15:00:45;15.20;99.90
43673;DHT22;41723;49.326;8.430;2023-11-19T15:03:11;15.10;99.90
43673;DHT22;41723;49.326;8.430;2023-11-19T15:05:37;15.20;99.90
43673;DHT22;41723;49.326;8.430;2023-11-19T15:08:03;15.20;99.90
43673;DHT22;41723;49.326;8.430;2023-11-19T15:10:28;15.10;99.90
43673;DHT22;41723;49.326;8.430;2023-11-19T15:12:54;15.10;99.90
43673;DHT22;41723;49.326;8.430;2023-11-19T15:15:20;15.10;99.90
43673;DHT22;41723;49.326;8.430;2023-11-19T15:17:46;15.00;99.90
43673;DHT22;41723;49.326;8.430;2023-11-19T15:20:11;15.00;99.90
43673;DHT22;41723;49.326;8.430;2023-11-19T15:22:40;15.00;99.90
43673;DHT22;41723;49.326;8.430;2023-11-19T15:25:06;15.00;99.90
43673;DHT22;41723;49.326;8.430;2023-11-19T15:27:35;14.90;99.90
43673;DHT22;41723;49.326;8.430;2023-11-19T15:30:02;14.90;99.90
43673;DHT22;41723;49.326;8.430;2023-11-19T15:32:28;14.80;99.90
43673;DHT22;41723;49.326;8.430;2023-11-19T15:34:59;14.80;99.90
43673;DHT22;41723;49.326;8.430;2023-11-19T15:37:25;14.80;99.90
43673;DHT22;41723;49.326;8.430;2023-11-19T15:39:51;14.80;99.90
43673;DHT22;41723;49.326;8.430;2023-11-19T15:42:17;14.70;99.90
43673;DHT22;41723;49.326;8.430;2023-11-19T15:44:42;14.70;99.90
43673;DHT22;41723;49.326;8.430;2023-11-19T15:47:09;14.60;99.90